EFHKEFMA

Guest
Details From EFHK - Helsinki Vantaa
To EFMA - Mariehamn
Flight Number -
Tags decoded
Created
Modified
Stats Distance 151 nm / 280 km
Max Altitude 0 ft / 0 m
Waypoints 4
Social Downloads 1
Likes 0
Share VATSIM

Download

Looking for another format? Having issues loading an existing format? Contact us
Advertisement - Login to hide

Notes

Requested: EFHK NUKSI N872 OXOLA Y81 ARMIT EFMA Unmatched points: N872 OXOLA Y81

Route

EFHK NUKSI ARMIT EFMA

ID Type Via Altitude Latitude Longitude Leg Dist Tot Dist Heading (true) Name
O EFHK APT - 0 ft / 0 m 60.32057˚ 24.95267˚ - 0 nm - Helsinki Vantaa
NUKSI FIX - 0 ft / 0 m 60.30778˚ 24.62472˚ 9 nm 9 nm 266° / 265° -
ARMIT FIX - 0 ft / 0 m 60.13611˚ 20.53278˚ 122 nm 132 nm 267° / 263° -
O EFMA APT - 0 ft / 0 m 60.12220˚ 19.89816˚ 19 nm 151 nm 268° / 267° Mariehamn

Altitude Profile

Advertisement - Login to hide

EFHK

Details ICAO EFHK (HEL)
Name Helsinki Vantaa
Region Finland
Timezone Europe/Helsinki (UTC+2.0)
Stats Elevation 179 ft / 55 m (AMSL)
Location 60.320569° 24.952668°
Runways 3
Magnetic Variation 8.953° E

METAR

EFHK 130150Z 26010KT 9999 FEW014 SCT023 BKN130 M01/M02 Q0988 NOSIG

Decode

TAF

TAF EFHK 122336Z 1300/1400 26011KT 9999 FEW008 BKN010 BKN018 BECMG 1300/1301 SCT020 TEMPO 1302/1305 5000 -SN PROB40 1302/1305 BKN013 SCT020CB TEMPO 1315/1319 4000 -SNRA BKN011 SCT030CB

Decode

Departure Runways

ID Width Length Bearing (true) Bearing (mag) Surface Threshold Offset Overrun Length
04L 197 ft / 60 m 9,817 ft / 2,992 m 47.43° 38.48° Asphalt 800 ft / 244 m 0 ft / 0 m
04R 197 ft / 60 m 10,472 ft / 3,192 m 47.46° 38.51° Asphalt 262 ft / 80 m 0 ft / 0 m
15 197 ft / 60 m 9,497 ft / 2,895 m 153.08° 144.13° Asphalt 0 ft / 0 m 198 ft / 60 m
22L 197 ft / 60 m 10,472 ft / 3,192 m 227.50° 218.55° Asphalt 0 ft / 0 m 197 ft / 60 m
22R 197 ft / 60 m 9,817 ft / 2,992 m 227.46° 218.51° Asphalt 912 ft / 278 m 0 ft / 0 m
33 197 ft / 60 m 9,497 ft / 2,895 m 333.10° 324.15° Asphalt 0 ft / 0 m 197 ft / 60 m

EFMA

Details ICAO EFMA (MHQ)
Name Mariehamn
Region Finland
Timezone Europe/Mariehamn (UTC+2.0)
Stats Elevation 17 ft / 5 m (AMSL)
Location 60.122203° 19.898157°
Runways 1
Magnetic Variation 6.955° E

METAR

EFMA 130150Z AUTO 26008KT 230V310 9999 BKN014 M02/M04 Q0994

Decode

TAF

Not found

Destination Runways

ID Width Length Bearing (true) Bearing (mag) Surface Threshold Offset Overrun Length
03 197 ft / 60 m 6,231 ft / 1,899 m 23.33° 16.37° Asphalt 0 ft / 0 m 161 ft / 49 m
21 197 ft / 60 m 6,231 ft / 1,899 m 203.35° 196.39° Asphalt 0 ft / 0 m 150 ft / 46 m

Approach Navaids

Runway Type Ident Frequency Range Bearing (true) Bearing (mag) Slope Elevation
21 Localiser MA 110.90 MHz 18 nm / 33 km 203.34° 196.38° - 17 ft / 5 m (AMSL)
21 Glidescope MA 110.90 MHz 10 nm / 19 km 203.34° 196.38° 3.50° 17 ft / 5 m (AMSL)

Popular Alternatives